High Tide — D5AA7 — position and weather

sailwx.info

Track history (hours):
 
Tides and Currents Weather Stations Pressure Air Temp Water Temp Dewpoint Dewpoint Depression Visibility Wind Speed Wind Dir Waves Ship Positions

High Tide

Last reported at 2017-Oct-13 18:37 UTC. Time now 2017-Oct-19 03:27 UTC.
Position N 01°16' E 104°07'.

Length 183 m; draft 7.5 m.

Type: Tanker. MMSI: 636015337.

Date/timePositionNaut miles runAvg speedWind from/ knotsBaromVisibWave heightAir tempDewpointWater temp
2017-Oct-13 18:37N 01°16' E 104°07'1 3.0
2017-Oct-13 18:23N 01°17' E 104°08'1 2.8
2017-Oct-13 17:54N 01°17' E 104°09'1 2.8
2017-Oct-13 17:27N 01°17' E 104°10'48 6.9
2017-Oct-13 10:26N 01°17' E 103°22'713.6
2017-Oct-13 09:54N 01°14' E 103°29'513.5
2017-Oct-13 09:30N 01°12' E 103°34'613.1
2017-Oct-13 09:01N 01°10' E 103°40'611.9
2017-Oct-13 08:30N 01°09' E 103°46'714.3
2017-Oct-13 08:01N 01°13' E 103°52'713.8
2017-Oct-13 07:30N 01°15' E 103°59'  
2017-Oct-09 08:26N 01°14' E 104°00'1 1.4
2017-Oct-09 08:00N 01°14' E 103°60'1 1.5
2017-Oct-09 07:30N 01°14' E 103°59'1 1.5
2017-Oct-09 06:59N 01°14' E 103°58'1 1.6
2017-Oct-09 06:30N 01°14' E 103°57'9 1.8
2017-Oct-09 01:51N 01°13' E 103°49'10 5.2
2017-Oct-08 23:51N 01°14' E 103°59'3 7.4
2017-Oct-08 23:30N 01°13' E 103°57'4 8.6
2017-Oct-08 23:00N 01°12' E 103°52'4 6.9
2017-Oct-08 22:27N 01°13' E 103°49'0 0.6
2017-Oct-08 22:00N 01°13' E 103°49'0 0.1
2017-Oct-08 21:22N 01°13' E 103°49'0 0.2
2017-Oct-08 20:58N 01°13' E 103°49'0 0.0
2017-Oct-08 20:25N 01°13' E 103°49'0 0.1
2017-Oct-08 19:58N 01°13' E 103°49'0 0.1
2017-Oct-08 19:28N 01°13' E 103°49'0 0.3
2017-Oct-08 19:00N 01°13' E 103°49'2 3.5
2017-Oct-08 18:31N 01°14' E 103°47'3 6.5
2017-Oct-08 18:00N 01°15' E 103°44'3 5.0
2017-Oct-08 17:30N 01°14' E 103°42'0 0.0
2017-Oct-08 15:30N 01°14' E 103°42'0 0.0
2017-Oct-08 14:54N 01°14' E 103°42'0 0.0
2017-Oct-08 14:30N 01°14' E 103°42'0 0.0
2017-Oct-08 12:12N 01°14' E 103°42'0 0.0
2017-Oct-08 11:01N 01°14' E 103°42'0 0.0
2017-Oct-08 10:48N 01°14' E 103°42'0 0.0
2017-Oct-08 10:21N 01°14' E 103°42'0 0.0
2017-Oct-08 09:57N 01°14' E 103°42'0 0.0
2017-Oct-08 09:30N 01°14' E 103°42'0 0.0
2017-Oct-08 09:00N 01°14' E 103°42'0 0.0
2017-Oct-08 08:30N 01°14' E 103°42'0 0.0
2017-Oct-08 07:57N 01°14' E 103°42'0 0.0
2017-Oct-08 07:21N 01°14' E 103°42'0 0.0
2017-Oct-08 06:06N 01°14' E 103°42'0 0.0
2017-Oct-08 05:54N 01°14' E 103°42'0 0.0
2017-Oct-08 05:30N 01°14' E 103°42'0 0.0
2017-Oct-08 04:45N 01°14' E 103°42'0 0.0
2017-Oct-08 04:30N 01°14' E 103°42'0 0.0
2017-Oct-08 03:39N 01°14' E 103°42'0 0.0
2017-Oct-08 03:27N 01°14' E 103°42'0 0.0
2017-Oct-08 02:57N 01°14' E 103°42'0 0.0
2017-Oct-08 02:27N 01°14' E 103°42'0 0.0
2017-Oct-08 01:48N 01°14' E 103°42'0 0.0
2017-Oct-08 01:30N 01°14' E 103°42'0 0.0
2017-Oct-08 00:57N 01°14' E 103°42'0 0.0
2017-Oct-08 00:24N 01°14' E 103°42'0 0.0
2017-Oct-07 23:57N 01°14' E 103°42'0 0.0
2017-Oct-07 23:27N 01°14' E 103°42'0 0.0
2017-Oct-07 22:48N 01°14' E 103°42'0 0.0
2017-Oct-07 22:24N 01°14' E 103°42'0 0.0
2017-Oct-07 21:57N 01°14' E 103°42'0 0.0
2017-Oct-07 21:27N 01°14' E 103°42'0 0.0
2017-Oct-07 20:42N 01°14' E 103°42'0 0.0
2017-Oct-07 20:30N 01°14' E 103°42'0 0.0
2017-Oct-07 19:51N 01°14' E 103°42'0 0.0
2017-Oct-07 19:30N 01°14' E 103°42'0 0.0
2017-Oct-07 18:51N 01°14' E 103°42'0 0.0
2017-Oct-07 18:30N 01°14' E 103°42'0 0.0
2017-Oct-07 17:51N 01°14' E 103°42'0 0.0
2017-Oct-07 17:27N 01°14' E 103°42'0 0.0
2017-Oct-07 16:57N 01°14' E 103°42'0 0.0
2017-Oct-07 16:30N 01°14' E 103°42'1916.7
2017-Oct-07 15:21N 01°16' E 104°01'1 2.2
2017-Oct-07 14:58N 01°16' E 104°02'1 2.5
2017-Oct-07 14:30N 01°16' E 104°03'1 2.2
2017-Oct-07 14:00N 01°16' E 104°04'2240.9
2017-Oct-07 13:27N 01°14' E 103°42'0 0.0
2017-Oct-07 12:51N 01°14' E 103°42'0 0.2
2017-Oct-07 12:30N 01°14' E 103°42'2 4.3
2017-Oct-07 12:01N 01°15' E 103°43'4 8.4
2017-Oct-07 11:30N 01°14' E 103°47'0 0.7
2017-Oct-07 10:55N 01°14' E 103°48'0 0.0
2017-Oct-07 10:28N 01°14' E 103°48'0 0.1
2017-Oct-07 09:58N 01°14' E 103°48'0 0.0
2017-Oct-07 09:28N 01°14' E 103°48'0 0.0
2017-Oct-07 08:55N 01°14' E 103°48'0 0.2
2017-Oct-07 08:30N 01°14' E 103°48'3 5.2
2017-Oct-07 07:59N 01°12' E 103°50'510.3
2017-Oct-07 07:30N 01°14' E 103°55'4 8.1
2017-Oct-07 06:57N 01°16' E 103°59'  
Track history (hours):
 
Tides and Currents Weather Stations Pressure Air Temp Water Temp Dewpoint Dewpoint Depression Visibility Wind Speed Wind Dir Waves Ship Positions

High Tide

Last reported at 2017-Oct-13 18:37 UTC. Time now 2017-Oct-19 03:27 UTC.
Position N 01°16' E 104°07'.

Length 183 m; draft 7.5 m.

Type: Tanker. MMSI: 636015337.

Date/timePositionNaut miles runAvg speedWind from/ knotsBaromVisibWave heightAir tempDewpointWater temp
2017-Oct-13 18:37N 01°16' E 104°07'1 3.0
2017-Oct-13 18:23N 01°17' E 104°08'1 2.8
2017-Oct-13 17:54N 01°17' E 104°09'1 2.8
2017-Oct-13 17:27N 01°17' E 104°10'48 6.9
2017-Oct-13 10:26N 01°17' E 103°22'713.6
2017-Oct-13 09:54N 01°14' E 103°29'513.5
2017-Oct-13 09:30N 01°12' E 103°34'613.1
2017-Oct-13 09:01N 01°10' E 103°40'611.9
2017-Oct-13 08:30N 01°09' E 103°46'714.3
2017-Oct-13 08:01N 01°13' E 103°52'713.8
2017-Oct-13 07:30N 01°15' E 103°59'  
2017-Oct-09 08:26N 01°14' E 104°00'1 1.4
2017-Oct-09 08:00N 01°14' E 103°60'1 1.5
2017-Oct-09 07:30N 01°14' E 103°59'1 1.5
2017-Oct-09 06:59N 01°14' E 103°58'1 1.6
2017-Oct-09 06:30N 01°14' E 103°57'9 1.8
2017-Oct-09 01:51N 01°13' E 103°49'10 5.2
2017-Oct-08 23:51N 01°14' E 103°59'3 7.4
2017-Oct-08 23:30N 01°13' E 103°57'4 8.6
2017-Oct-08 23:00N 01°12' E 103°52'4 6.9
2017-Oct-08 22:27N 01°13' E 103°49'0 0.6
2017-Oct-08 22:00N 01°13' E 103°49'0 0.1
2017-Oct-08 21:22N 01°13' E 103°49'0 0.2
2017-Oct-08 20:58N 01°13' E 103°49'0 0.0
2017-Oct-08 20:25N 01°13' E 103°49'0 0.1
2017-Oct-08 19:58N 01°13' E 103°49'0 0.1
2017-Oct-08 19:28N 01°13' E 103°49'0 0.3
2017-Oct-08 19:00N 01°13' E 103°49'2 3.5
2017-Oct-08 18:31N 01°14' E 103°47'3 6.5
2017-Oct-08 18:00N 01°15' E 103°44'3 5.0
2017-Oct-08 17:30N 01°14' E 103°42'0 0.0
2017-Oct-08 15:30N 01°14' E 103°42'0 0.0
2017-Oct-08 14:54N 01°14' E 103°42'0 0.0
2017-Oct-08 14:30N 01°14' E 103°42'0 0.0
2017-Oct-08 12:12N 01°14' E 103°42'0 0.0
2017-Oct-08 11:01N 01°14' E 103°42'0 0.0
2017-Oct-08 10:48N 01°14' E 103°42'0 0.0
2017-Oct-08 10:21N 01°14' E 103°42'0 0.0
2017-Oct-08 09:57N 01°14' E 103°42'0 0.0
2017-Oct-08 09:30N 01°14' E 103°42'0 0.0
2017-Oct-08 09:00N 01°14' E 103°42'0 0.0
2017-Oct-08 08:30N 01°14' E 103°42'0 0.0
2017-Oct-08 07:57N 01°14' E 103°42'0 0.0
2017-Oct-08 07:21N 01°14' E 103°42'0 0.0
2017-Oct-08 06:06N 01°14' E 103°42'0 0.0
2017-Oct-08 05:54N 01°14' E 103°42'0 0.0
2017-Oct-08 05:30N 01°14' E 103°42'0 0.0
2017-Oct-08 04:45N 01°14' E 103°42'0 0.0
2017-Oct-08 04:30N 01°14' E 103°42'0 0.0
2017-Oct-08 03:39N 01°14' E 103°42'0 0.0
2017-Oct-08 03:27N 01°14' E 103°42'0 0.0
2017-Oct-08 02:57N 01°14' E 103°42'0 0.0
2017-Oct-08 02:27N 01°14' E 103°42'0 0.0
2017-Oct-08 01:48N 01°14' E 103°42'0 0.0
2017-Oct-08 01:30N 01°14' E 103°42'0 0.0
2017-Oct-08 00:57N 01°14' E 103°42'0 0.0
2017-Oct-08 00:24N 01°14' E 103°42'0 0.0
2017-Oct-07 23:57N 01°14' E 103°42'0 0.0
2017-Oct-07 23:27N 01°14' E 103°42'0 0.0
2017-Oct-07 22:48N 01°14' E 103°42'0 0.0
2017-Oct-07 22:24N 01°14' E 103°42'0 0.0
2017-Oct-07 21:57N 01°14' E 103°42'0 0.0
2017-Oct-07 21:27N 01°14' E 103°42'0 0.0
2017-Oct-07 20:42N 01°14' E 103°42'0 0.0
2017-Oct-07 20:30N 01°14' E 103°42'0 0.0
2017-Oct-07 19:51N 01°14' E 103°42'0 0.0
2017-Oct-07 19:30N 01°14' E 103°42'0 0.0
2017-Oct-07 18:51N 01°14' E 103°42'0 0.0
2017-Oct-07 18:30N 01°14' E 103°42'0 0.0
2017-Oct-07 17:51N 01°14' E 103°42'0 0.0
2017-Oct-07 17:27N 01°14' E 103°42'0 0.0
2017-Oct-07 16:57N 01°14' E 103°42'0 0.0
2017-Oct-07 16:30N 01°14' E 103°42'1916.7
2017-Oct-07 15:21N 01°16' E 104°01'1 2.2
2017-Oct-07 14:58N 01°16' E 104°02'1 2.5
2017-Oct-07 14:30N 01°16' E 104°03'1 2.2
2017-Oct-07 14:00N 01°16' E 104°04'2240.9
2017-Oct-07 13:27N 01°14' E 103°42'0 0.0
2017-Oct-07 12:51N 01°14' E 103°42'0 0.2
2017-Oct-07 12:30N 01°14' E 103°42'2 4.3
2017-Oct-07 12:01N 01°15' E 103°43'4 8.4
2017-Oct-07 11:30N 01°14' E 103°47'0 0.7
2017-Oct-07 10:55N 01°14' E 103°48'0 0.0
2017-Oct-07 10:28N 01°14' E 103°48'0 0.1
2017-Oct-07 09:58N 01°14' E 103°48'0 0.0
2017-Oct-07 09:28N 01°14' E 103°48'0 0.0
2017-Oct-07 08:55N 01°14' E 103°48'0 0.2
2017-Oct-07 08:30N 01°14' E 103°48'3 5.2
2017-Oct-07 07:59N 01°12' E 103°50'510.3
2017-Oct-07 07:30N 01°14' E 103°55'4 8.1
2017-Oct-07 06:57N 01°16' E 103°59'  

Dump ship's entire track history